sensor_id;sensor_type;location;lat;lon;timestamp;P1;durP1;ratioP1;P2;durP2;ratioP2
9238;SDS011;4654;43.242;27.976;2024-03-17T00:01:18;24.60;;;16.23;;
9238;SDS011;4654;43.242;27.976;2024-03-17T00:03:45;20.77;;;14.47;;
9238;SDS011;4654;43.242;27.976;2024-03-17T00:06:11;18.93;;;14.03;;
9238;SDS011;4654;43.242;27.976;2024-03-17T00:08:40;18.97;;;13.90;;
9238;SDS011;4654;43.242;27.976;2024-03-17T00:11:06;20.90;;;14.10;;
9238;SDS011;4654;43.242;27.976;2024-03-17T00:13:34;21.90;;;14.30;;
9238;SDS011;4654;43.242;27.976;2024-03-17T00:16:00;20.70;;;13.60;;
9238;SDS011;4654;43.242;27.976;2024-03-17T00:18:27;22.40;;;15.73;;
9238;SDS011;4654;43.242;27.976;2024-03-17T00:20:54;21.23;;;14.93;;
9238;SDS011;4654;43.242;27.976;2024-03-17T00:23:21;23.63;;;15.90;;
9238;SDS011;4654;43.242;27.976;2024-03-17T00:25:49;21.77;;;14.83;;
9238;SDS011;4654;43.242;27.976;2024-03-17T00:28:16;22.03;;;14.73;;
9238;SDS011;4654;43.242;27.976;2024-03-17T00:30:43;22.73;;;14.97;;
9238;SDS011;4654;43.242;27.976;2024-03-17T00:33:11;21.17;;;14.07;;
9238;SDS011;4654;43.242;27.976;2024-03-17T00:35:37;20.70;;;14.20;;
9238;SDS011;4654;43.242;27.976;2024-03-17T00:38:05;19.87;;;14.60;;
9238;SDS011;4654;43.242;27.976;2024-03-17T00:40:35;20.37;;;13.70;;
9238;SDS011;4654;43.242;27.976;2024-03-17T00:43:04;18.33;;;13.60;;
9238;SDS011;4654;43.242;27.976;2024-03-17T00:45:30;19.67;;;12.97;;
9238;SDS011;4654;43.242;27.976;2024-03-17T00:47:58;19.23;;;13.17;;
9238;SDS011;4654;43.242;27.976;2024-03-17T00:50:24;21.07;;;13.40;;
9238;SDS011;4654;43.242;27.976;2024-03-17T00:52:52;18.80;;;13.33;;
9238;SDS011;4654;43.242;27.976;2024-03-17T00:55:18;18.10;;;11.83;;
9238;SDS011;4654;43.242;27.976;2024-03-17T00:57:45;15.43;;;11.13;;
9238;SDS011;4654;43.242;27.976;2024-03-17T01:00:13;14.40;;;10.87;;
9238;SDS011;4654;43.242;27.976;2024-03-17T01:02:41;15.23;;;11.37;;
9238;SDS011;4654;43.242;27.976;2024-03-17T01:05:08;14.87;;;10.90;;
9238;SDS011;4654;43.242;27.976;2024-03-17T01:07:36;14.77;;;11.23;;
9238;SDS011;4654;43.242;27.976;2024-03-17T01:10:02;16.50;;;11.63;;
9238;SDS011;4654;43.242;27.976;2024-03-17T01:12:33;16.97;;;12.03;;
9238;SDS011;4654;43.242;27.976;2024-03-17T01:14:59;16.47;;;12.10;;
9238;SDS011;4654;43.242;27.976;2024-03-17T01:17:29;19.03;;;12.70;;
9238;SDS011;4654;43.242;27.976;2024-03-17T01:19:55;18.57;;;12.47;;
9238;SDS011;4654;43.242;27.976;2024-03-17T01:22:22;20.67;;;14.13;;
9238;SDS011;4654;43.242;27.976;2024-03-17T01:24:49;25.20;;;14.97;;
9238;SDS011;4654;43.242;27.976;2024-03-17T01:27:16;22.30;;;14.97;;
9238;SDS011;4654;43.242;27.976;2024-03-17T01:29:43;19.83;;;14.17;;
9238;SDS011;4654;43.242;27.976;2024-03-17T01:32:10;21.53;;;14.77;;
9238;SDS011;4654;43.242;27.976;2024-03-17T01:34:39;20.93;;;14.93;;
9238;SDS011;4654;43.242;27.976;2024-03-17T01:37:05;22.50;;;14.37;;
9238;SDS011;4654;43.242;27.976;2024-03-17T01:39:33;20.97;;;13.10;;
9238;SDS011;4654;43.242;27.976;2024-03-17T01:41:59;20.77;;;13.17;;
9238;SDS011;4654;43.242;27.976;2024-03-17T01:44:28;19.50;;;13.93;;
9238;SDS011;4654;43.242;27.976;2024-03-17T01:46:55;20.10;;;14.17;;
9238;SDS011;4654;43.242;27.976;2024-03-17T01:49:23;21.90;;;14.03;;
9238;SDS011;4654;43.242;27.976;2024-03-17T01:51:53;23.93;;;15.87;;
9238;SDS011;4654;43.242;27.976;2024-03-17T01:54:20;25.77;;;16.07;;
9238;SDS011;4654;43.242;27.976;2024-03-17T01:56:47;24.13;;;16.37;;
9238;SDS011;4654;43.242;27.976;2024-03-17T01:59:15;22.33;;;15.03;;
9238;SDS011;4654;43.242;27.976;2024-03-17T02:01:41;25.63;;;15.83;;
9238;SDS011;4654;43.242;27.976;2024-03-17T02:04:09;27.60;;;17.00;;
9238;SDS011;4654;43.242;27.976;2024-03-17T02:06:35;24.87;;;16.30;;
9238;SDS011;4654;43.242;27.976;2024-03-17T02:09:04;23.73;;;16.40;;
9238;SDS011;4654;43.242;27.976;2024-03-17T02:11:30;21.23;;;14.53;;
9238;SDS011;4654;43.242;27.976;2024-03-17T02:13:59;23.37;;;15.13;;
9238;SDS011;4654;43.242;27.976;2024-03-17T02:16:26;22.53;;;14.90;;
9238;SDS011;4654;43.242;27.976;2024-03-17T02:18:54;20.23;;;14.20;;
9238;SDS011;4654;43.242;27.976;2024-03-17T02:21:20;26.13;;;15.23;;
9238;SDS011;4654;43.242;27.976;2024-03-17T02:23:51;22.10;;;15.20;;
9238;SDS011;4654;43.242;27.976;2024-03-17T02:26:18;24.63;;;15.70;;
9238;SDS011;4654;43.242;27.976;2024-03-17T02:28:46;23.70;;;15.63;;
9238;SDS011;4654;43.242;27.976;2024-03-17T02:31:13;27.60;;;16.93;;
9238;SDS011;4654;43.242;27.976;2024-03-17T02:33:41;25.47;;;17.20;;
9238;SDS011;4654;43.242;27.976;2024-03-17T02:36:09;25.63;;;16.97;;
9238;SDS011;4654;43.242;27.976;2024-03-17T02:38:37;28.57;;;17.93;;
9238;SDS011;4654;43.242;27.976;2024-03-17T02:41:24;30.33;;;17.40;;
9238;SDS011;4654;43.242;27.976;2024-03-17T02:43:51;28.43;;;17.50;;
9238;SDS011;4654;43.242;27.976;2024-03-17T02:46:19;25.60;;;17.33;;
9238;SDS011;4654;43.242;27.976;2024-03-17T02:48:53;27.07;;;16.67;;
9238;SDS011;4654;43.242;27.976;2024-03-17T02:51:21;26.83;;;17.27;;
9238;SDS011;4654;43.242;27.976;2024-03-17T02:53:49;25.17;;;15.60;;
9238;SDS011;4654;43.242;27.976;2024-03-17T02:56:17;27.47;;;16.73;;
9238;SDS011;4654;43.242;27.976;2024-03-17T02:58:48;26.23;;;17.83;;
9238;SDS011;4654;43.242;27.976;2024-03-17T03:01:16;26.87;;;16.67;;
9238;SDS011;4654;43.242;27.976;2024-03-17T03:03:44;22.43;;;16.03;;
9238;SDS011;4654;43.242;27.976;2024-03-17T03:06:11;24.23;;;16.33;;
9238;SDS011;4654;43.242;27.976;2024-03-17T03:08:39;25.60;;;16.63;;
9238;SDS011;4654;43.242;27.976;2024-03-17T03:11:08;25.97;;;15.80;;
9238;SDS011;4654;43.242;27.976;2024-03-17T03:13:37;24.03;;;16.23;;
9238;SDS011;4654;43.242;27.976;2024-03-17T03:16:07;24.37;;;15.97;;
9238;SDS011;4654;43.242;27.976;2024-03-17T03:18:35;23.97;;;15.53;;
9238;SDS011;4654;43.242;27.976;2024-03-17T03:21:04;22.57;;;15.80;;
9238;SDS011;4654;43.242;27.976;2024-03-17T03:23:32;21.57;;;15.20;;
9238;SDS011;4654;43.242;27.976;2024-03-17T03:26:00;23.07;;;16.17;;
9238;SDS011;4654;43.242;27.976;2024-03-17T03:28:29;22.37;;;15.67;;
9238;SDS011;4654;43.242;27.976;2024-03-17T03:30:58;23.07;;;15.10;;
9238;SDS011;4654;43.242;27.976;2024-03-17T03:33:28;25.30;;;16.57;;
9238;SDS011;4654;43.242;27.976;2024-03-17T03:35:56;22.80;;;15.50;;
9238;SDS011;4654;43.242;27.976;2024-03-17T03:38:23;23.03;;;15.63;;
9238;SDS011;4654;43.242;27.976;2024-03-17T03:40:51;25.77;;;16.13;;
9238;SDS011;4654;43.242;27.976;2024-03-17T03:43:19;24.80;;;16.27;;
9238;SDS011;4654;43.242;27.976;2024-03-17T03:45:46;25.30;;;16.00;;
9238;SDS011;4654;43.242;27.976;2024-03-17T03:48:13;23.27;;;15.97;;
9238;SDS011;4654;43.242;27.976;2024-03-17T03:50:42;24.07;;;15.63;;
9238;SDS011;4654;43.242;27.976;2024-03-17T03:53:10;23.53;;;15.63;;
9238;SDS011;4654;43.242;27.976;2024-03-17T03:55:37;24.73;;;17.17;;
9238;SDS011;4654;43.242;27.976;2024-03-17T03:58:04;20.53;;;15.47;;
9238;SDS011;4654;43.242;27.976;2024-03-17T04:00:32;24.97;;;17.03;;
9238;SDS011;4654;43.242;27.976;2024-03-17T04:02:59;27.13;;;17.17;;
9238;SDS011;4654;43.242;27.976;2024-03-17T04:05:27;27.13;;;17.47;;
9238;SDS011;4654;43.242;27.976;2024-03-17T04:07:56;29.20;;;17.00;;
9238;SDS011;4654;43.242;27.976;2024-03-17T04:10:24;30.37;;;17.20;;
9238;SDS011;4654;43.242;27.976;2024-03-17T04:12:51;27.57;;;17.53;;
9238;SDS011;4654;43.242;27.976;2024-03-17T04:15:19;27.17;;;17.33;;
9238;SDS011;4654;43.242;27.976;2024-03-17T04:17:46;28.30;;;17.87;;
9238;SDS011;4654;43.242;27.976;2024-03-17T04:20:13;25.13;;;15.83;;
9238;SDS011;4654;43.242;27.976;2024-03-17T04:22:41;28.50;;;16.97;;
9238;SDS011;4654;43.242;27.976;2024-03-17T04:25:10;28.37;;;18.40;;
9238;SDS011;4654;43.242;27.976;2024-03-17T04:27:39;30.77;;;19.10;;
9238;SDS011;4654;43.242;27.976;2024-03-17T04:30:07;30.20;;;18.83;;
9238;SDS011;4654;43.242;27.976;2024-03-17T04:32:37;28.83;;;18.80;;
9238;SDS011;4654;43.242;27.976;2024-03-17T04:35:04;31.23;;;19.43;;
9238;SDS011;4654;43.242;27.976;2024-03-17T04:37:32;30.00;;;19.57;;
9238;SDS011;4654;43.242;27.976;2024-03-17T04:40:04;27.20;;;19.13;;
9238;SDS011;4654;43.242;27.976;2024-03-17T04:42:36;32.20;;;19.47;;
9238;SDS011;4654;43.242;27.976;2024-03-17T04:45:05;30.93;;;19.83;;
9238;SDS011;4654;43.242;27.976;2024-03-17T04:47:35;27.13;;;18.67;;
9238;SDS011;4654;43.242;27.976;2024-03-17T04:50:03;27.43;;;18.47;;
9238;SDS011;4654;43.242;27.976;2024-03-17T04:52:31;27.47;;;18.10;;
9238;SDS011;4654;43.242;27.976;2024-03-17T04:54:59;28.27;;;18.90;;
9238;SDS011;4654;43.242;27.976;2024-03-17T04:57:26;29.70;;;18.47;;
9238;SDS011;4654;43.242;27.976;2024-03-17T04:59:55;33.57;;;20.97;;
9238;SDS011;4654;43.242;27.976;2024-03-17T05:02:22;34.27;;;20.70;;
9238;SDS011;4654;43.242;27.976;2024-03-17T05:04:49;41.00;;;23.97;;
9238;SDS011;4654;43.242;27.976;2024-03-17T05:07:17;44.07;;;25.10;;
9238;SDS011;4654;43.242;27.976;2024-03-17T05:09:44;97.90;;;32.63;;
9238;SDS011;4654;43.242;27.976;2024-03-17T05:12:11;56.50;;;30.83;;
9238;SDS011;4654;43.242;27.976;2024-03-17T05:14:39;57.00;;;29.23;;
9238;SDS011;4654;43.242;27.976;2024-03-17T05:17:07;341.10;;;46.37;;
9238;SDS011;4654;43.242;27.976;2024-03-17T05:19:35;216.70;;;39.43;;
9238;SDS011;4654;43.242;27.976;2024-03-17T05:22:02;402.70;;;51.27;;
9238;SDS011;4654;43.242;27.976;2024-03-17T05:24:30;275.87;;;34.13;;
9238;SDS011;4654;43.242;27.976;2024-03-17T05:26:57;277.67;;;36.97;;
9238;SDS011;4654;43.242;27.976;2024-03-17T05:29:24;300.73;;;41.47;;
9238;SDS011;4654;43.242;27.976;2024-03-17T05:31:51;459.07;;;49.60;;
9238;SDS011;4654;43.242;27.976;2024-03-17T05:34:20;474.43;;;61.00;;
9238;SDS011;4654;43.242;27.976;2024-03-17T05:36:49;481.60;;;50.27;;
9238;SDS011;4654;43.242;27.976;2024-03-17T05:39:17;214.73;;;34.97;;
9238;SDS011;4654;43.242;27.976;2024-03-17T05:41:45;432.10;;;48.93;;
9238;SDS011;4654;43.242;27.976;2024-03-17T05:44:14;330.77;;;39.47;;
9238;SDS011;4654;43.242;27.976;2024-03-17T05:46:41;330.57;;;43.07;;
9238;SDS011;4654;43.242;27.976;2024-03-17T05:49:08;318.33;;;35.73;;
9238;SDS011;4654;43.242;27.976;2024-03-17T05:51:37;377.53;;;47.23;;
9238;SDS011;4654;43.242;27.976;2024-03-17T05:54:04;285.10;;;39.67;;
9238;SDS011;4654;43.242;27.976;2024-03-17T05:56:31;295.03;;;39.13;;
9238;SDS011;4654;43.242;27.976;2024-03-17T05:59:00;219.90;;;36.97;;
9238;SDS011;4654;43.242;27.976;2024-03-17T06:01:27;350.27;;;44.10;;
9238;SDS011;4654;43.242;27.976;2024-03-17T06:03:54;348.13;;;42.50;;
9238;SDS011;4654;43.242;27.976;2024-03-17T06:06:21;388.17;;;48.33;;
9238;SDS011;4654;43.242;27.976;2024-03-17T06:08:50;326.13;;;43.10;;
9238;SDS011;4654;43.242;27.976;2024-03-17T06:11:17;225.03;;;38.30;;
9238;SDS011;4654;43.242;27.976;2024-03-17T06:13:45;232.30;;;41.40;;
9238;SDS011;4654;43.242;27.976;2024-03-17T06:16:12;248.27;;;33.73;;
9238;SDS011;4654;43.242;27.976;2024-03-17T06:18:39;249.63;;;35.13;;
9238;SDS011;4654;43.242;27.976;2024-03-17T06:21:06;315.87;;;37.80;;
9238;SDS011;4654;43.242;27.976;2024-03-17T06:23:34;322.73;;;35.47;;
9238;SDS011;4654;43.242;27.976;2024-03-17T06:26:03;186.40;;;29.43;;
9238;SDS011;4654;43.242;27.976;2024-03-17T06:28:31;378.20;;;35.90;;
9238;SDS011;4654;43.242;27.976;2024-03-17T06:30:58;218.63;;;32.87;;
9238;SDS011;4654;43.242;27.976;2024-03-17T06:33:29;238.80;;;35.10;;
9238;SDS011;4654;43.242;27.976;2024-03-17T06:35:57;101.53;;;26.23;;
9238;SDS011;4654;43.242;27.976;2024-03-17T06:38:24;65.87;;;27.97;;
9238;SDS011;4654;43.242;27.976;2024-03-17T06:40:52;162.67;;;29.90;;
9238;SDS011;4654;43.242;27.976;2024-03-17T06:43:20;55.83;;;24.33;;
9238;SDS011;4654;43.242;27.976;2024-03-17T06:45:54;75.87;;;25.17;;
9238;SDS011;4654;43.242;27.976;2024-03-17T06:48:22;80.47;;;24.33;;
9238;SDS011;4654;43.242;27.976;2024-03-17T06:50:50;99.13;;;25.03;;
9238;SDS011;4654;43.242;27.976;2024-03-17T06:53:19;40.57;;;24.63;;
9238;SDS011;4654;43.242;27.976;2024-03-17T06:55:53;34.43;;;21.77;;
9238;SDS011;4654;43.242;27.976;2024-03-17T06:58:22;32.43;;;22.23;;
9238;SDS011;4654;43.242;27.976;2024-03-17T07:00:52;31.07;;;21.37;;
9238;SDS011;4654;43.242;27.976;2024-03-17T07:03:20;38.50;;;27.00;;
9238;SDS011;4654;43.242;27.976;2024-03-17T07:05:54;27.57;;;20.83;;
9238;SDS011;4654;43.242;27.976;2024-03-17T07:08:23;27.93;;;20.17;;
9238;SDS011;4654;43.242;27.976;2024-03-17T07:10:57;26.57;;;19.93;;
9238;SDS011;4654;43.242;27.976;2024-03-17T07:13:29;22.57;;;18.47;;
9238;SDS011;4654;43.242;27.976;2024-03-17T07:15:57;23.40;;;18.37;;
9238;SDS011;4654;43.242;27.976;2024-03-17T07:18:25;21.97;;;18.30;;
9238;SDS011;4654;43.242;27.976;2024-03-17T07:20:53;20.67;;;16.63;;
9238;SDS011;4654;43.242;27.976;2024-03-17T07:23:22;19.37;;;16.17;;
9238;SDS011;4654;43.242;27.976;2024-03-17T07:25:53;17.70;;;14.73;;
9238;SDS011;4654;43.242;27.976;2024-03-17T07:28:21;15.33;;;13.70;;
9238;SDS011;4654;43.242;27.976;2024-03-17T07:30:51;14.87;;;12.83;;
9238;SDS011;4654;43.242;27.976;2024-03-17T07:33:19;13.80;;;12.10;;
9238;SDS011;4654;43.242;27.976;2024-03-17T07:35:47;12.90;;;11.70;;
9238;SDS011;4654;43.242;27.976;2024-03-17T07:38:15;13.70;;;12.27;;
9238;SDS011;4654;43.242;27.976;2024-03-17T07:40:42;16.67;;;14.90;;
9238;SDS011;4654;43.242;27.976;2024-03-17T07:43:10;12.70;;;11.40;;
9238;SDS011;4654;43.242;27.976;2024-03-17T07:45:37;12.57;;;11.27;;
9238;SDS011;4654;43.242;27.976;2024-03-17T07:48:06;13.68;;;12.27;;
9238;SDS011;4654;43.242;27.976;2024-03-17T07:50:34;11.82;;;10.73;;
9238;SDS011;4654;43.242;27.976;2024-03-17T07:53:01;14.70;;;13.40;;
9238;SDS011;4654;43.242;27.976;2024-03-17T07:55:29;14.52;;;13.23;;
9238;SDS011;4654;43.242;27.976;2024-03-17T07:57:57;11.38;;;10.32;;
9238;SDS011;4654;43.242;27.976;2024-03-17T08:00:24;11.60;;;10.57;;
9238;SDS011;4654;43.242;27.976;2024-03-17T08:02:51;10.75;;;9.75;;
9238;SDS011;4654;43.242;27.976;2024-03-17T08:05:20;10.40;;;9.40;;
9238;SDS011;4654;43.242;27.976;2024-03-17T08:07:48;10.35;;;9.45;;
9238;SDS011;4654;43.242;27.976;2024-03-17T08:10:15;9.63;;;8.73;;
9238;SDS011;4654;43.242;27.976;2024-03-17T08:12:43;10.73;;;9.82;;
9238;SDS011;4654;43.242;27.976;2024-03-17T08:15:10;10.63;;;9.73;;
9238;SDS011;4654;43.242;27.976;2024-03-17T08:17:39;10.82;;;9.82;;
9238;SDS011;4654;43.242;27.976;2024-03-17T08:20:06;9.73;;;8.93;;
9238;SDS011;4654;43.242;27.976;2024-03-17T08:22:36;9.00;;;8.10;;
9238;SDS011;4654;43.242;27.976;2024-03-17T08:25:03;9.48;;;8.65;;
9238;SDS011;4654;43.242;27.976;2024-03-17T08:27:31;10.95;;;10.02;;
9238;SDS011;4654;43.242;27.976;2024-03-17T08:29:58;11.80;;;10.02;;
9238;SDS011;4654;43.242;27.976;2024-03-17T08:32:25;10.55;;;9.55;;
9238;SDS011;4654;43.242;27.976;2024-03-17T08:34:53;13.30;;;11.98;;
9238;SDS011;4654;43.242;27.976;2024-03-17T08:37:20;10.70;;;9.77;;
9238;SDS011;4654;43.242;27.976;2024-03-17T08:39:52;11.93;;;10.70;;
9238;SDS011;4654;43.242;27.976;2024-03-17T08:42:19;10.82;;;9.82;;
9238;SDS011;4654;43.242;27.976;2024-03-17T08:44:47;11.35;;;10.20;;
9238;SDS011;4654;43.242;27.976;2024-03-17T08:47:14;9.82;;;9.02;;
9238;SDS011;4654;43.242;27.976;2024-03-17T08:49:41;15.50;;;13.80;;
9238;SDS011;4654;43.242;27.976;2024-03-17T08:52:08;9.60;;;8.80;;
9238;SDS011;4654;43.242;27.976;2024-03-17T08:54:36;11.65;;;10.65;;
9238;SDS011;4654;43.242;27.976;2024-03-17T08:57:04;13.45;;;12.20;;
9238;SDS011;4654;43.242;27.976;2024-03-17T08:59:32;12.15;;;11.02;;
9238;SDS011;4654;43.242;27.976;2024-03-17T09:01:59;10.13;;;9.23;;
9238;SDS011;4654;43.242;27.976;2024-03-17T09:04:26;11.50;;;10.50;;
9238;SDS011;4654;43.242;27.976;2024-03-17T09:06:53;13.15;;;11.73;;
9238;SDS011;4654;43.242;27.976;2024-03-17T09:09:21;10.63;;;9.52;;
9238;SDS011;4654;43.242;27.976;2024-03-17T09:11:48;10.43;;;9.50;;
9238;SDS011;4654;43.242;27.976;2024-03-17T09:14:18;10.98;;;9.75;;
9238;SDS011;4654;43.242;27.976;2024-03-17T09:16:47;14.40;;;13.10;;
9238;SDS011;4654;43.242;27.976;2024-03-17T09:19:14;12.13;;;11.13;;
9238;SDS011;4654;43.242;27.976;2024-03-17T09:21:42;11.00;;;10.05;;
9238;SDS011;4654;43.242;27.976;2024-03-17T09:24:10;11.05;;;10.05;;
9238;SDS011;4654;43.242;27.976;2024-03-17T09:26:37;12.50;;;11.30;;
9238;SDS011;4654;43.242;27.976;2024-03-17T09:29:05;12.52;;;11.43;;
9238;SDS011;4654;43.242;27.976;2024-03-17T09:31:34;10.95;;;10.05;;
9238;SDS011;4654;43.242;27.976;2024-03-17T09:34:01;12.05;;;11.02;;
9238;SDS011;4654;43.242;27.976;2024-03-17T09:36:29;12.18;;;11.10;;
9238;SDS011;4654;43.242;27.976;2024-03-17T09:38:57;13.45;;;12.15;;
9238;SDS011;4654;43.242;27.976;2024-03-17T09:41:25;12.82;;;11.65;;
9238;SDS011;4654;43.242;27.976;2024-03-17T09:43:54;12.85;;;11.65;;
9238;SDS011;4654;43.242;27.976;2024-03-17T09:46:22;10.52;;;9.55;;
9238;SDS011;4654;43.242;27.976;2024-03-17T09:48:52;13.45;;;12.23;;
9238;SDS011;4654;43.242;27.976;2024-03-17T09:51:21;13.38;;;12.18;;
9238;SDS011;4654;43.242;27.976;2024-03-17T09:53:49;11.85;;;10.80;;
9238;SDS011;4654;43.242;27.976;2024-03-17T09:56:18;14.23;;;12.82;;
9238;SDS011;4654;43.242;27.976;2024-03-17T09:58:46;12.88;;;11.68;;
9238;SDS011;4654;43.242;27.976;2024-03-17T10:01:14;11.68;;;10.57;;
9238;SDS011;4654;43.242;27.976;2024-03-17T10:03:42;13.38;;;12.18;;
9238;SDS011;4654;43.242;27.976;2024-03-17T10:06:13;14.45;;;12.52;;
9238;SDS011;4654;43.242;27.976;2024-03-17T10:08:44;14.85;;;13.45;;
9238;SDS011;4654;43.242;27.976;2024-03-17T10:11:13;11.38;;;10.27;;
9238;SDS011;4654;43.242;27.976;2024-03-17T10:13:41;11.77;;;10.68;;
9238;SDS011;4654;43.242;27.976;2024-03-17T10:16:21;13.13;;;11.88;;
9238;SDS011;4654;43.242;27.976;2024-03-17T10:18:50;11.55;;;10.43;;
9238;SDS011;4654;43.242;27.976;2024-03-17T10:21:33;12.45;;;10.18;;
9238;SDS011;4654;43.242;27.976;2024-03-17T10:24:07;10.60;;;9.55;;
9238;SDS011;4654;43.242;27.976;2024-03-17T10:26:36;13.80;;;12.32;;
9238;SDS011;4654;43.242;27.976;2024-03-17T10:29:05;12.90;;;11.52;;
9238;SDS011;4654;43.242;27.976;2024-03-17T10:31:48;11.63;;;10.40;;
9238;SDS011;4654;43.242;27.976;2024-03-17T10:34:15;13.13;;;11.73;;
9238;SDS011;4654;43.242;27.976;2024-03-17T10:36:45;15.63;;;13.97;;
9238;SDS011;4654;43.242;27.976;2024-03-17T10:39:23;13.33;;;11.40;;
9238;SDS011;4654;43.242;27.976;2024-03-17T10:41:56;13.23;;;11.83;;
9238;SDS011;4654;43.242;27.976;2024-03-17T10:44:25;17.50;;;13.87;;
9238;SDS011;4654;43.242;27.976;2024-03-17T10:46:54;14.83;;;13.27;;
9238;SDS011;4654;43.242;27.976;2024-03-17T10:49:23;14.57;;;12.27;;
9238;SDS011;4654;43.242;27.976;2024-03-17T10:51:58;15.30;;;12.53;;
9238;SDS011;4654;43.242;27.976;2024-03-17T10:54:27;21.17;;;14.90;;
9238;SDS011;4654;43.242;27.976;2024-03-17T10:56:55;13.87;;;12.23;;
9238;SDS011;4654;43.242;27.976;2024-03-17T10:59:27;14.77;;;12.80;;
9238;SDS011;4654;43.242;27.976;2024-03-17T11:02:08;15.47;;;12.63;;
9238;SDS011;4654;43.242;27.976;2024-03-17T11:04:44;14.03;;;11.97;;
9238;SDS011;4654;43.242;27.976;2024-03-17T11:07:15;15.07;;;13.50;;
9238;SDS011;4654;43.242;27.976;2024-03-17T11:09:44;15.60;;;13.33;;
9238;SDS011;4654;43.242;27.976;2024-03-17T11:20:57;18.33;;;14.80;;
9238;SDS011;4654;43.242;27.976;2024-03-17T11:23:28;17.20;;;13.53;;
9238;SDS011;4654;43.242;27.976;2024-03-17T11:25:56;17.40;;;14.47;;
9238;SDS011;4654;43.242;27.976;2024-03-17T11:34:03;12.40;;;10.77;;
9238;SDS011;4654;43.242;27.976;2024-03-17T11:36:33;12.23;;;10.03;;
9238;SDS011;4654;43.242;27.976;2024-03-17T11:39:04;12.00;;;10.40;;
9238;SDS011;4654;43.242;27.976;2024-03-17T11:41:36;9.50;;;7.90;;
9238;SDS011;4654;43.242;27.976;2024-03-17T11:44:18;10.23;;;8.83;;
9238;SDS011;4654;43.242;27.976;2024-03-17T11:46:52;10.53;;;9.03;;
9238;SDS011;4654;43.242;27.976;2024-03-17T11:49:20;12.00;;;8.90;;
9238;SDS011;4654;43.242;27.976;2024-03-17T11:51:49;8.83;;;7.83;;
9238;SDS011;4654;43.242;27.976;2024-03-17T11:54:18;9.67;;;7.87;;
9238;SDS011;4654;43.242;27.976;2024-03-17T11:56:47;8.90;;;8.00;;
9238;SDS011;4654;43.242;27.976;2024-03-17T11:59:15;10.47;;;8.90;;
9238;SDS011;4654;43.242;27.976;2024-03-17T12:01:44;8.77;;;7.43;;
9238;SDS011;4654;43.242;27.976;2024-03-17T12:04:12;14.43;;;10.83;;
9238;SDS011;4654;43.242;27.976;2024-03-17T12:06:44;11.93;;;9.40;;
9238;SDS011;4654;43.242;27.976;2024-03-17T12:09:14;14.17;;;10.33;;
9238;SDS011;4654;43.242;27.976;2024-03-17T12:11:46;12.97;;;10.20;;
9238;SDS011;4654;43.242;27.976;2024-03-17T12:14:15;12.83;;;10.87;;
9238;SDS011;4654;43.242;27.976;2024-03-17T12:16:49;15.20;;;11.80;;
9238;SDS011;4654;43.242;27.976;2024-03-17T12:19:19;11.27;;;10.07;;
9238;SDS011;4654;43.242;27.976;2024-03-17T12:21:46;13.33;;;10.97;;
9238;SDS011;4654;43.242;27.976;2024-03-17T12:24:16;12.27;;;10.63;;
9238;SDS011;4654;43.242;27.976;2024-03-17T12:26:45;13.80;;;12.00;;
9238;SDS011;4654;43.242;27.976;2024-03-17T12:29:23;15.40;;;13.13;;
9238;SDS011;4654;43.242;27.976;2024-03-17T12:31:52;14.67;;;11.50;;
9238;SDS011;4654;43.242;27.976;2024-03-17T12:34:21;16.27;;;12.10;;
9238;SDS011;4654;43.242;27.976;2024-03-17T12:36:48;14.40;;;12.23;;
9238;SDS011;4654;43.242;27.976;2024-03-17T12:39:19;16.90;;;14.20;;
9238;SDS011;4654;43.242;27.976;2024-03-17T12:44:30;20.83;;;15.23;;
9238;SDS011;4654;43.242;27.976;2024-03-17T12:46:57;16.87;;;13.37;;
9238;SDS011;4654;43.242;27.976;2024-03-17T12:49:26;15.27;;;11.90;;
9238;SDS011;4654;43.242;27.976;2024-03-17T12:51:53;12.17;;;10.27;;
9238;SDS011;4654;43.242;27.976;2024-03-17T12:54:22;13.77;;;11.80;;
9238;SDS011;4654;43.242;27.976;2024-03-17T12:56:50;16.90;;;12.90;;
9238;SDS011;4654;43.242;27.976;2024-03-17T12:59:39;20.17;;;16.50;;
9238;SDS011;4654;43.242;27.976;2024-03-17T13:02:33;16.60;;;13.57;;
9238;SDS011;4654;43.242;27.976;2024-03-17T13:05:16;20.27;;;15.90;;
9238;SDS011;4654;43.242;27.976;2024-03-17T13:07:46;13.97;;;12.17;;
9238;SDS011;4654;43.242;27.976;2024-03-17T13:10:15;16.40;;;13.20;;
9238;SDS011;4654;43.242;27.976;2024-03-17T13:12:43;15.67;;;12.43;;
9238;SDS011;4654;43.242;27.976;2024-03-17T13:15:13;16.87;;;14.10;;
9238;SDS011;4654;43.242;27.976;2024-03-17T13:17:41;13.93;;;12.43;;
9238;SDS011;4654;43.242;27.976;2024-03-17T13:20:11;19.27;;;15.23;;
9238;SDS011;4654;43.242;27.976;2024-03-17T13:22:40;18.53;;;14.53;;
9238;SDS011;4654;43.242;27.976;2024-03-17T13:25:09;15.80;;;13.17;;
9238;SDS011;4654;43.242;27.976;2024-03-17T13:27:42;18.67;;;13.80;;
9238;SDS011;4654;43.242;27.976;2024-03-17T13:30:10;17.60;;;13.80;;
9238;SDS011;4654;43.242;27.976;2024-03-17T13:32:38;17.03;;;14.07;;
9238;SDS011;4654;43.242;27.976;2024-03-17T13:35:13;21.27;;;14.23;;
9238;SDS011;4654;43.242;27.976;2024-03-17T13:37:42;18.37;;;13.93;;
9238;SDS011;4654;43.242;27.976;2024-03-17T13:40:09;17.67;;;14.00;;
9238;SDS011;4654;43.242;27.976;2024-03-17T13:42:43;16.37;;;13.80;;
9238;SDS011;4654;43.242;27.976;2024-03-17T13:45:11;15.27;;;13.00;;
9238;SDS011;4654;43.242;27.976;2024-03-17T13:47:39;18.03;;;14.07;;
9238;SDS011;4654;43.242;27.976;2024-03-17T13:50:07;20.73;;;15.77;;
9238;SDS011;4654;43.242;27.976;2024-03-17T13:52:38;18.17;;;14.17;;
9238;SDS011;4654;43.242;27.976;2024-03-17T13:55:06;24.33;;;18.07;;
9238;SDS011;4654;43.242;27.976;2024-03-17T13:57:38;27.63;;;21.37;;
9238;SDS011;4654;43.242;27.976;2024-03-17T14:00:07;20.97;;;16.93;;
9238;SDS011;4654;43.242;27.976;2024-03-17T14:02:35;22.13;;;17.40;;
9238;SDS011;4654;43.242;27.976;2024-03-17T14:05:03;19.00;;;15.40;;
9238;SDS011;4654;43.242;27.976;2024-03-17T14:07:33;16.80;;;14.30;;
9238;SDS011;4654;43.242;27.976;2024-03-17T14:10:00;19.23;;;15.33;;
9238;SDS011;4654;43.242;27.976;2024-03-17T14:12:28;18.00;;;15.83;;
9238;SDS011;4654;43.242;27.976;2024-03-17T14:14:56;18.17;;;15.00;;
9238;SDS011;4654;43.242;27.976;2024-03-17T14:17:25;18.23;;;16.00;;
9238;SDS011;4654;43.242;27.976;2024-03-17T14:19:52;18.80;;;14.17;;
9238;SDS011;4654;43.242;27.976;2024-03-17T14:22:19;17.37;;;14.80;;
9238;SDS011;4654;43.242;27.976;2024-03-17T14:24:47;18.10;;;14.57;;
9238;SDS011;4654;43.242;27.976;2024-03-17T14:27:15;21.13;;;16.53;;
9238;SDS011;4654;43.242;27.976;2024-03-17T14:29:43;25.47;;;18.07;;
9238;SDS011;4654;43.242;27.976;2024-03-17T14:32:10;17.60;;;15.67;;
9238;SDS011;4654;43.242;27.976;2024-03-17T14:34:41;23.20;;;18.70;;
9238;SDS011;4654;43.242;27.976;2024-03-17T14:37:08;22.90;;;17.87;;
9238;SDS011;4654;43.242;27.976;2024-03-17T14:39:35;17.10;;;14.00;;
9238;SDS011;4654;43.242;27.976;2024-03-17T14:42:03;21.23;;;16.43;;
9238;SDS011;4654;43.242;27.976;2024-03-17T14:44:31;17.97;;;15.37;;
9238;SDS011;4654;43.242;27.976;2024-03-17T14:47:00;19.03;;;15.27;;
9238;SDS011;4654;43.242;27.976;2024-03-17T14:49:29;20.03;;;15.77;;
9238;SDS011;4654;43.242;27.976;2024-03-17T14:51:59;21.20;;;17.13;;
9238;SDS011;4654;43.242;27.976;2024-03-17T14:54:25;21.03;;;16.60;;
9238;SDS011;4654;43.242;27.976;2024-03-17T14:56:53;20.53;;;16.90;;
9238;SDS011;4654;43.242;27.976;2024-03-17T14:59:20;20.03;;;16.20;;
9238;SDS011;4654;43.242;27.976;2024-03-17T15:01:47;20.40;;;16.63;;